createdAt,value
2019-04-07T00:00:35.877Z,100096.78
2019-04-07T00:03:08.045Z,100097.03
2019-04-07T00:05:41.456Z,100094.69
2019-04-07T00:08:13.754Z,100092.33
2019-04-07T00:10:45.535Z,100085.14
2019-04-07T00:13:17.340Z,100092.44
2019-04-07T00:15:49.149Z,100090.38
2019-04-07T00:18:20.857Z,100087.02
2019-04-07T00:20:52.877Z,100089.14
2019-04-07T00:23:25.163Z,100086.66
2019-04-07T00:25:56.931Z,100092.94
2019-04-07T00:28:28.725Z,100091.91
2019-04-07T00:31:00.725Z,100088.64
2019-04-07T00:33:32.652Z,100088.55
2019-04-07T00:36:04.639Z,100086.42
2019-04-07T00:38:36.401Z,100083.11
2019-04-07T00:41:08.884Z,100083.02
2019-04-07T00:43:41.792Z,100082.44
2019-04-07T00:46:13.784Z,100077.84
2019-04-07T00:48:45.566Z,100077.89
2019-04-07T00:51:17.850Z,100084.36
2019-04-07T00:53:50.770Z,100080.33
2019-04-07T00:56:22.684Z,100072.73
2019-04-07T00:58:54.559Z,100075.47
2019-04-07T01:01:26.358Z,100072.67
2019-04-07T01:03:58.405Z,100068.17
2019-04-07T01:06:30.269Z,100070.41
2019-04-07T01:09:01.988Z,100063.94
2019-04-07T01:11:35.447Z,100069.47
2019-04-07T01:14:08.217Z,100073.52
2019-04-07T01:16:41.771Z,100078.20
2019-04-07T01:19:14.590Z,100070.39
2019-04-07T01:21:46.918Z,100076.76
2019-04-07T01:24:18.745Z,100072.00
2019-04-07T01:26:51.647Z,100077.55
2019-04-07T01:29:23.465Z,100078.50
2019-04-07T01:31:55.967Z,100081.66
2019-04-07T01:34:28.942Z,100080.94
2019-04-07T01:37:02.055Z,100082.45
2019-04-07T01:39:33.948Z,100076.72
2019-04-07T01:42:12.585Z,100086.16
2019-04-07T01:45:02.837Z,100086.19
2019-04-07T01:47:44.287Z,100085.69
2019-04-07T01:50:28.636Z,100092.14
2019-04-07T01:53:10.765Z,100092.77
2019-04-07T01:56:01.869Z,100089.01
2019-04-07T01:58:43.481Z,100087.78
2019-04-07T02:01:37.248Z,100094.36
2019-04-07T02:04:45.882Z,100095.95
2019-04-07T02:07:49.009Z,100091.47
2019-04-07T02:10:30.633Z,100085.00
2019-04-07T02:13:20.715Z,100082.20
2019-04-07T02:16:12.324Z,100080.98
2019-04-07T02:18:54.238Z,100085.97
2019-04-07T02:21:44.974Z,100090.41
2019-04-07T02:24:38.099Z,100087.87
2019-04-07T02:27:29.415Z,100088.47
2019-04-07T02:30:17.201Z,100080.33
2019-04-07T02:33:06.996Z,100082.14
2019-04-07T02:35:56.021Z,100087.16
2019-04-07T02:39:06.010Z,100080.69
2019-04-07T02:41:48.738Z,100078.98
2019-04-07T02:44:51.172Z,100083.61
2019-04-07T02:47:44.679Z,100087.64
2019-04-07T02:50:35.450Z,100085.81
2019-04-07T02:53:20.361Z,100088.60
2019-04-07T02:56:01.996Z,100089.11
2019-04-07T02:58:44.361Z,100083.36
2019-04-07T03:01:35.178Z,100087.77
2019-04-07T03:04:24.556Z,100083.73
2019-04-07T03:07:13.562Z,100084.31
2019-04-07T03:10:13.439Z,100087.27
2019-04-07T03:12:57.514Z,100082.23
2019-04-07T03:15:46.257Z,100083.91
2019-04-07T03:18:37.412Z,100081.43
2019-04-07T03:21:28.130Z,100083.46
2019-04-07T03:24:24.713Z,100087.21
2019-04-07T03:27:13.660Z,100088.77
2019-04-07T03:30:17.832Z,100091.08
2019-04-07T03:33:14.246Z,100076.98
2019-04-07T03:36:05.748Z,100082.02
2019-04-07T03:38:53.819Z,100077.64
2019-04-07T03:41:53.756Z,100082.17
2019-04-07T03:44:34.515Z,100081.20
2019-04-07T03:47:32.066Z,100087.12
2019-04-07T03:50:23.056Z,100087.48
2019-04-07T03:53:12.438Z,100092.23
2019-04-07T03:55:53.481Z,100098.67
2019-04-07T03:58:42.988Z,100091.35
2019-04-07T04:01:34.284Z,100090.34
2019-04-07T04:04:44.205Z,100087.64
2019-04-07T04:07:31.560Z,100085.56
2019-04-07T04:10:23.856Z,100089.52
2019-04-07T04:13:14.384Z,100092.77
2019-04-07T04:15:56.684Z,100088.24
2019-04-07T04:18:28.750Z,100098.86
2019-04-07T04:21:01.408Z,100103.12
2019-04-07T04:23:33.699Z,100102.84
2019-04-07T04:26:06.358Z,100102.67
2019-04-07T04:28:39.052Z,100100.95
2019-04-07T04:31:11.126Z,100101.31
2019-04-07T04:33:42.933Z,100099.62
2019-04-07T04:36:15.560Z,100110.32
2019-04-07T04:38:48.034Z,100105.34
2019-04-07T04:41:20.917Z,100107.45
2019-04-07T04:43:53.512Z,100115.27
2019-04-07T04:46:26.221Z,100108.84
2019-04-07T04:48:59.292Z,100115.27
2019-04-07T04:51:35.473Z,100118.97
2019-04-07T04:54:07.143Z,100114.90
2019-04-07T04:56:39.441Z,100119.64
2019-04-07T04:59:11.453Z,100111.17
2019-04-07T05:01:43.471Z,100118.85
2019-04-07T05:04:15.258Z,100119.75
2019-04-07T05:06:47.816Z,100118.45
2019-04-07T05:09:20.027Z,100120.17
2019-04-07T05:11:51.810Z,100122.02
2019-04-07T05:14:24.176Z,100125.17
2019-04-07T05:16:56.094Z,100127.55
2019-04-07T05:19:28.279Z,100120.72
2019-04-07T05:22:00.219Z,100128.90
2019-04-07T05:24:32.220Z,100134.63
2019-04-07T05:27:03.987Z,100137.08
2019-04-07T05:29:35.755Z,100131.36
2019-04-07T05:32:07.989Z,100143.56
2019-04-07T05:34:40.311Z,100141.16
2019-04-07T05:37:12.106Z,100146.16
2019-04-07T05:39:43.870Z,100142.77
2019-04-07T05:42:15.752Z,100142.64
2019-04-07T05:44:47.654Z,100146.56
2019-04-07T05:47:19.999Z,100147.77
2019-04-07T05:49:54.493Z,100145.59
2019-04-07T05:52:25.286Z,100150.34
2019-04-07T05:54:57.786Z,100147.66
2019-04-07T05:57:33.359Z,100153.66
2019-04-07T06:00:04.265Z,100151.72
2019-04-07T06:02:36.335Z,100153.05
2019-04-07T06:05:08.233Z,100149.28
2019-04-07T06:07:40.111Z,100153.17
2019-04-07T06:10:11.962Z,100152.81
2019-04-07T06:12:47.150Z,100154.05
2019-04-07T06:15:21.998Z,100154.88
2019-04-07T06:17:52.207Z,100155.12
2019-04-07T06:20:24.704Z,100158.52
2019-04-07T06:22:56.523Z,100156.69
2019-04-07T06:25:33.244Z,100156.80
2019-04-07T06:28:02.265Z,100161.18
2019-04-07T06:30:36.114Z,100160.69
2019-04-07T06:33:07.449Z,100158.96
2019-04-07T06:35:39.331Z,100154.43
2019-04-07T06:38:11.042Z,100160.98
2019-04-07T06:40:43.694Z,100154.09
2019-04-07T06:43:15.676Z,100150.16
2019-04-07T06:45:57.402Z,100154.53
2019-04-07T06:48:30.496Z,100152.30
2019-04-07T06:51:12.459Z,100152.63
2019-04-07T06:54:04.938Z,100154.25
2019-04-07T06:57:06.311Z,100152.13
2019-04-07T06:59:52.475Z,100160.13
2019-04-07T07:02:51.967Z,100159.41
2019-04-07T07:05:36.489Z,100164.12
2019-04-07T07:08:42.459Z,100163.78
2019-04-07T07:11:28.582Z,100158.84
2019-04-07T07:14:07.803Z,100161.58
2019-04-07T07:16:53.070Z,100166.70
2019-04-07T07:19:49.837Z,100167.95
2019-04-07T07:22:34.784Z,100164.69
2019-04-07T07:25:06.757Z,100164.23
2019-04-07T07:27:40.383Z,100168.88
2019-04-07T07:30:12.148Z,100169.92
2019-04-07T07:32:44.240Z,100173.77
2019-04-07T07:35:16.445Z,100171.28
2019-04-07T07:37:48.448Z,100173.86
2019-04-07T07:40:21.063Z,100179.26
2019-04-07T07:42:55.432Z,100173.02
2019-04-07T07:45:27.363Z,100169.73
2019-04-07T07:47:59.262Z,100169.88
2019-04-07T07:50:34.707Z,100174.27
2019-04-07T07:53:06.805Z,100171.43
2019-04-07T07:55:38.740Z,100171.83
2019-04-07T07:58:11.602Z,100171.00
2019-04-07T08:00:47.589Z,100171.74
2019-04-07T08:03:22.631Z,100178.48
2019-04-07T08:05:53.335Z,100178.91
2019-04-07T08:08:25.372Z,100180.69
2019-04-07T08:11:00.631Z,100176.28
2019-04-07T08:13:32.491Z,100178.09
2019-04-07T08:16:06.950Z,100180.31
2019-04-07T08:18:43.540Z,100184.84
2019-04-07T08:21:17.627Z,100180.07
2019-04-07T08:23:51.360Z,100184.81
2019-04-07T08:26:26.006Z,100184.64
2019-04-07T08:28:58.124Z,100188.84
2019-04-07T08:31:30.430Z,100181.98
2019-04-07T08:34:02.368Z,100180.78
2019-04-07T08:36:36.514Z,100180.56
2019-04-07T08:39:19.391Z,100187.10
2019-04-07T08:41:43.675Z,100186.89
2019-04-07T08:44:17.567Z,100187.97
2019-04-07T08:46:52.912Z,100180.10
2019-04-07T08:49:27.714Z,100176.81
2019-04-07T08:52:04.019Z,100177.05
2019-04-07T08:54:33.100Z,100167.62
2019-04-07T08:57:05.683Z,100171.56
2019-04-07T08:59:42.388Z,100176.05
2019-04-07T09:02:11.367Z,100176.05
2019-04-07T09:04:47.272Z,100178.27
2019-04-07T09:07:17.650Z,100177.95
2019-04-07T09:09:50.180Z,100170.50
2019-04-07T09:12:24.937Z,100171.91
2019-04-07T09:14:55.880Z,100173.77
2019-04-07T09:17:58.941Z,100164.12
2019-04-07T09:21:07.841Z,100167.84
2019-04-07T09:24:09.404Z,100166.82
2019-04-07T09:27:02.312Z,100163.55
2019-04-07T09:30:01.221Z,100168.00
2019-04-07T09:32:52.506Z,100169.64
2019-04-07T09:35:49.758Z,100174.02
2019-04-07T09:38:29.426Z,100170.88
2019-04-07T09:41:28.547Z,100172.10
2019-04-07T09:44:25.419Z,100171.88
2019-04-07T09:47:22.646Z,100169.22
2019-04-07T09:50:07.241Z,100162.55
2019-04-07T09:52:52.469Z,100159.76
2019-04-07T09:55:35.571Z,100158.98
2019-04-07T09:58:26.407Z,100161.54
2019-04-07T10:01:20.026Z,100161.79
2019-04-07T10:04:13.094Z,100160.25
2019-04-07T10:07:00.964Z,100162.65
2019-04-07T10:09:48.577Z,100166.23
2019-04-07T10:12:40.494Z,100164.79
2019-04-07T10:15:31.685Z,100160.04
2019-04-07T10:18:13.119Z,100164.38
2019-04-07T10:21:03.904Z,100165.15
2019-04-07T10:23:45.860Z,100165.37
2019-04-07T10:26:36.331Z,100166.52
2019-04-07T10:29:27.586Z,100168.58
2019-04-07T10:32:13.756Z,100161.73
2019-04-07T10:35:08.024Z,100158.95
2019-04-07T10:37:58.745Z,100159.38
2019-04-07T10:40:45.417Z,100157.89
2019-04-07T10:43:48.215Z,100150.29
2019-04-07T10:46:40.041Z,100151.17
2019-04-07T10:49:36.219Z,100149.27
2019-04-07T10:52:22.238Z,100157.32
2019-04-07T10:55:11.362Z,100154.31
2019-04-07T10:58:05.467Z,100145.03
2019-04-07T11:00:57.665Z,100151.06
2019-04-07T11:03:45.385Z,100142.52
2019-04-07T11:06:35.745Z,100144.22
2019-04-07T11:09:28.383Z,100145.85
2019-04-07T11:12:23.006Z,100146.31
2019-04-07T11:15:13.796Z,100149.95
2019-04-07T11:18:14.780Z,100149.77
2019-04-07T11:21:04.676Z,100156.19
2019-04-07T11:23:47.782Z,100146.06
2019-04-07T11:26:33.141Z,100146.69
2019-04-07T11:29:11.837Z,100148.66
2019-04-07T11:31:56.876Z,100142.42
2019-04-07T11:34:53.597Z,100139.45
2019-04-07T11:37:44.195Z,100142.05
2019-04-07T11:40:44.487Z,100135.06
2019-04-07T11:43:28.919Z,100134.63
2019-04-07T11:46:13.949Z,100138.30
2019-04-07T11:48:54.726Z,100130.50
2019-04-07T11:51:46.753Z,100132.61
2019-04-07T11:54:35.596Z,100123.97
2019-04-07T11:57:23.435Z,100128.23
2019-04-07T12:00:25.119Z,100125.96
2019-04-07T12:03:27.628Z,100129.45
2019-04-07T12:06:14.211Z,100130.63
2019-04-07T12:09:05.048Z,100129.26
2019-04-07T12:11:54.469Z,100131.45
2019-04-07T12:14:43.008Z,100126.62
2019-04-07T12:17:32.065Z,100123.86
2019-04-07T12:20:10.854Z,100128.00
2019-04-07T12:22:58.254Z,100121.25
2019-04-07T12:25:48.287Z,100120.33
2019-04-07T12:28:50.391Z,100122.34
2019-04-07T12:31:48.669Z,100121.19
2019-04-07T12:34:38.647Z,100118.11
2019-04-07T12:37:19.618Z,100111.52
2019-04-07T12:40:26.629Z,100120.23
2019-04-07T12:43:07.312Z,100111.87
2019-04-07T12:46:10.137Z,100106.80
2019-04-07T12:49:17.616Z,100103.64
2019-04-07T12:52:09.665Z,100103.86
2019-04-07T12:54:48.986Z,100104.70
2019-04-07T12:57:39.564Z,100101.31
2019-04-07T13:00:39.108Z,100098.66
2019-04-07T13:03:37.512Z,100099.20
2019-04-07T13:06:28.772Z,100102.45
2019-04-07T13:09:10.679Z,100097.20
2019-04-07T13:12:15.093Z,100094.55
2019-04-07T13:14:54.651Z,100093.72
2019-04-07T13:17:42.226Z,100090.90
2019-04-07T13:20:42.575Z,100093.09
2019-04-07T13:23:36.066Z,100084.87
2019-04-07T13:26:33.518Z,100086.09
2019-04-07T13:29:11.813Z,100088.56
2019-04-07T13:31:50.600Z,100083.51
2019-04-07T13:34:45.375Z,100084.01
2019-04-07T13:37:33.045Z,100083.03
2019-04-07T13:40:36.404Z,100081.34
2019-04-07T13:43:33.144Z,100073.77
2019-04-07T13:46:33.515Z,100080.53
2019-04-07T13:49:33.299Z,100079.07
2019-04-07T13:52:31.189Z,100076.02
2019-04-07T13:55:10.421Z,100073.69
2019-04-07T13:57:57.706Z,100076.73
2019-04-07T14:00:54.171Z,100080.53
2019-04-07T14:03:35.824Z,100073.69
2019-04-07T14:06:16.424Z,100071.00
2019-04-07T14:09:29.051Z,100073.76
2019-04-07T14:12:13.863Z,100061.26
2019-04-07T14:15:14.280Z,100073.05
2019-04-07T14:18:05.801Z,100070.53
2019-04-07T14:20:43.084Z,100075.47
2019-04-07T14:23:34.277Z,100078.11
2019-04-07T14:26:34.625Z,100070.07
2019-04-07T14:29:31.667Z,100070.61
2019-04-07T14:32:31.593Z,100066.61
2019-04-07T14:35:25.818Z,100065.56
2019-04-07T14:38:15.761Z,100065.52
2019-04-07T14:41:06.497Z,100066.16
2019-04-07T14:44:00.639Z,100068.89
2019-04-07T14:46:46.739Z,100069.72
2019-04-07T14:49:41.107Z,100070.63
2019-04-07T14:52:21.570Z,100065.52
2019-04-07T14:55:19.571Z,100067.39
2019-04-07T14:58:16.792Z,100067.72
2019-04-07T15:01:05.896Z,100059.18
2019-04-07T15:03:36.684Z,100053.00
2019-04-07T15:06:08.766Z,100054.27
2019-04-07T15:08:46.284Z,100055.55
2019-04-07T15:11:32.288Z,100051.11
2019-04-07T15:14:04.281Z,100056.84
2019-04-07T15:16:36.815Z,100054.49
2019-04-07T15:19:09.562Z,100054.47
2019-04-07T15:21:42.195Z,100058.66
2019-04-07T15:24:13.925Z,100060.34
2019-04-07T15:26:49.508Z,100066.09
2019-04-07T15:29:19.898Z,100058.88
2019-04-07T15:31:53.258Z,100057.59
2019-04-07T15:34:26.414Z,100062.23
2019-04-07T15:37:02.206Z,100062.42
2019-04-07T15:39:37.146Z,100059.41
2019-04-07T15:42:09.483Z,100056.98
2019-04-07T15:44:42.769Z,100051.83
2019-04-07T15:47:15.403Z,100052.52
2019-04-07T15:49:47.160Z,100056.34
2019-04-07T15:52:19.654Z,100057.41
2019-04-07T15:54:54.337Z,100062.12
2019-04-07T15:57:25.744Z,100061.66
2019-04-07T16:00:00.067Z,100065.95
2019-04-07T16:02:31.311Z,100067.73
2019-04-07T16:05:03.711Z,100069.59
2019-04-07T16:07:36.346Z,100068.19
2019-04-07T16:10:08.319Z,100071.56
2019-04-07T16:12:46.500Z,100078.61
2019-04-07T16:15:16.408Z,100082.55
2019-04-07T16:17:47.610Z,100076.84
2019-04-07T16:20:24.513Z,100082.31
2019-04-07T16:22:52.908Z,100084.12
2019-04-07T16:25:27.615Z,100083.47
2019-04-07T16:27:58.749Z,100089.73
2019-04-07T16:30:30.622Z,100098.75
2019-04-07T16:33:04.416Z,100099.00
2019-04-07T16:35:36.525Z,100090.05
2019-04-07T16:38:09.448Z,100098.89
2019-04-07T16:40:43.300Z,100096.39
2019-04-07T16:43:17.495Z,100095.34
2019-04-07T16:45:48.986Z,100102.81
2019-04-07T16:48:20.912Z,100106.45
2019-04-07T16:50:55.277Z,100105.50
2019-04-07T16:53:26.949Z,100106.73
2019-04-07T16:55:58.904Z,100102.69
2019-04-07T16:58:34.344Z,100107.05
2019-04-07T17:01:04.613Z,100106.35
2019-04-07T17:03:36.563Z,100105.04
2019-04-07T17:06:11.751Z,100105.42
2019-04-07T17:08:42.325Z,100102.41
2019-04-07T17:11:14.216Z,100110.25
2019-04-07T17:13:46.098Z,100111.48
2019-04-07T17:16:22.605Z,100108.42
2019-04-07T17:18:55.383Z,100110.86
2019-04-07T17:21:25.508Z,100112.95
2019-04-07T17:23:58.120Z,100112.91
2019-04-07T17:26:30.736Z,100112.78
2019-04-07T17:29:03.213Z,100117.05
2019-04-07T17:31:35.174Z,100123.61
2019-04-07T17:34:09.891Z,100122.69
2019-04-07T17:36:40.858Z,100115.64
2019-04-07T17:39:28.075Z,100130.86
2019-04-07T17:42:01.572Z,100125.00
2019-04-07T17:44:41.396Z,100126.70
2019-04-07T17:47:38.165Z,100132.45
2019-04-07T17:50:38.976Z,100130.57
2019-04-07T17:53:40.141Z,100134.12
2019-04-07T17:56:24.267Z,100136.69
2019-04-07T17:59:24.203Z,100137.53
2019-04-07T18:02:18.143Z,100137.27
2019-04-07T18:05:22.050Z,100146.22
2019-04-07T18:08:19.875Z,100153.61
2019-04-07T18:11:17.723Z,100153.48
2019-04-07T18:14:12.910Z,100160.65
2019-04-07T18:17:13.104Z,100163.76
2019-04-07T18:19:59.519Z,100170.56
2019-04-07T18:22:56.996Z,100170.56
2019-04-07T18:25:43.372Z,100177.34
2019-04-07T18:28:34.341Z,100180.23
2019-04-07T18:31:35.058Z,100181.20
2019-04-07T18:34:32.113Z,100182.20
2019-04-07T18:37:24.035Z,100185.94
2019-04-07T18:40:18.663Z,100189.19
2019-04-07T18:43:12.201Z,100189.13
2019-04-07T18:46:01.129Z,100195.02
2019-04-07T18:49:04.429Z,100197.94
2019-04-07T18:51:53.743Z,100196.23
2019-04-07T18:54:44.793Z,100195.88
2019-04-07T18:57:45.074Z,100203.57
2019-04-07T19:00:37.279Z,100206.39
2019-04-07T19:03:41.795Z,100209.59
2019-04-07T19:06:40.040Z,100207.16
2019-04-07T19:09:33.129Z,100208.13
2019-04-07T19:12:24.840Z,100212.31
2019-04-07T19:15:36.541Z,100211.77
2019-04-07T19:18:23.511Z,100211.84
2019-04-07T19:21:20.440Z,100213.50
2019-04-07T19:23:59.092Z,100213.72
2019-04-07T19:26:54.309Z,100216.47
2019-04-07T19:29:49.934Z,100214.22
2019-04-07T19:32:43.156Z,100212.84
2019-04-07T19:35:37.726Z,100199.36
2019-04-07T19:38:30.968Z,100199.36
2019-04-07T19:41:18.748Z,100195.77
2019-04-07T19:44:17.551Z,100195.77
2019-04-07T19:47:20.540Z,100206.00
2019-04-07T19:50:23.494Z,100202.44
2019-04-07T19:53:14.611Z,100202.44
2019-04-07T19:56:20.885Z,100205.02
2019-04-07T19:59:11.485Z,100206.17
2019-04-07T20:02:17.645Z,100203.16
2019-04-07T20:05:10.118Z,100205.86
2019-04-07T20:08:14.777Z,100200.66
2019-04-07T20:10:55.865Z,100210.69
2019-04-07T20:13:45.212Z,100203.16
2019-04-07T20:16:26.971Z,100199.33
2019-04-07T20:19:15.398Z,100200.55
2019-04-07T20:22:09.157Z,100205.61
2019-04-07T20:25:00.791Z,100205.47
2019-04-07T20:27:57.357Z,100202.57
2019-04-07T20:30:37.726Z,100202.27
2019-04-07T20:33:32.759Z,100201.84
2019-04-07T20:36:23.761Z,100203.26
2019-04-07T20:39:07.272Z,100207.59
2019-04-07T20:41:49.390Z,100211.16
2019-04-07T20:44:38.813Z,100207.52
2019-04-07T20:47:23.619Z,100211.05
2019-04-07T20:50:11.854Z,100205.88
2019-04-07T20:53:11.407Z,100204.80
2019-04-07T20:55:53.983Z,100201.16
2019-04-07T20:58:53.025Z,100207.70
2019-04-07T21:01:35.445Z,100205.46
2019-04-07T21:04:25.682Z,100205.61
2019-04-07T21:07:29.802Z,100204.30
2019-04-07T21:10:24.314Z,100213.14
2019-04-07T21:13:30.155Z,100206.34
2019-04-07T21:16:26.002Z,100210.42
2019-04-07T21:19:13.024Z,100209.02
2019-04-07T21:22:15.350Z,100209.43
2019-04-07T21:25:01.794Z,100209.79
2019-04-07T21:27:39.292Z,100204.25
2019-04-07T21:30:27.266Z,100214.75
2019-04-07T21:33:23.769Z,100208.18
2019-04-07T21:36:12.076Z,100212.48
2019-04-07T21:39:01.628Z,100211.05
2019-04-07T21:41:52.047Z,100210.94
2019-04-07T21:44:34.663Z,100212.02
2019-04-07T21:47:14.257Z,100209.95
2019-04-07T21:49:56.255Z,100208.70
2019-04-07T21:52:43.255Z,100206.77
2019-04-07T21:55:31.609Z,100207.94
2019-04-07T21:58:14.500Z,100208.16
2019-04-07T22:01:02.860Z,100203.64
2019-04-07T22:03:52.210Z,100202.01
2019-04-07T22:06:39.258Z,100199.58
2019-04-07T22:09:23.312Z,100205.47
2019-04-07T22:11:56.142Z,100202.81
2019-04-07T22:14:28.370Z,100207.61
2019-04-07T22:17:02.456Z,100210.19
2019-04-07T22:19:33.959Z,100207.52
2019-04-07T22:22:06.867Z,100204.95
2019-04-07T22:24:39.536Z,100209.84
2019-04-07T22:27:12.476Z,100203.23
2019-04-07T22:29:44.900Z,100207.38
2019-04-07T22:32:19.280Z,100205.08
2019-04-07T22:34:50.463Z,100205.47
2019-04-07T22:37:23.424Z,100210.25
2019-04-07T22:39:59.089Z,100206.98
2019-04-07T22:42:28.841Z,100204.41
2019-04-07T22:45:00.693Z,100202.24
2019-04-07T22:47:32.573Z,100203.73
2019-04-07T22:50:05.760Z,100202.13
2019-04-07T22:52:38.278Z,100203.08
2019-04-07T22:55:10.169Z,100197.98
2019-04-07T22:57:42.021Z,100202.02
2019-04-07T23:00:23.351Z,100198.95
2019-04-07T23:02:55.445Z,100198.73
2019-04-07T23:05:27.686Z,100200.56
2019-04-07T23:07:59.910Z,100194.68
2019-04-07T23:10:31.882Z,100199.22
2019-04-07T23:13:03.717Z,100194.68
2019-04-07T23:15:42.567Z,100191.26
2019-04-07T23:18:10.306Z,100195.29
2019-04-07T23:20:43.887Z,100197.63
2019-04-07T23:23:16.450Z,100199.58
2019-04-07T23:25:48.278Z,100199.57
2019-04-07T23:28:20.859Z,100202.13
2019-04-07T23:30:52.756Z,100204.66
2019-04-07T23:33:25.560Z,100207.25
2019-04-07T23:35:57.526Z,100209.22
2019-04-07T23:38:30.327Z,100207.83
2019-04-07T23:41:03.241Z,100209.39
2019-04-07T23:43:35.540Z,100210.00
2019-04-07T23:46:19.445Z,100220.46
2019-04-07T23:48:40.831Z,100219.80
2019-04-07T23:51:12.945Z,100218.97
2019-04-07T23:54:12.201Z,100222.01
2019-04-07T23:56:44.889Z,100222.98
2019-04-07T23:59:16.910Z,100220.30
